Time;durP1;ratioP1;P1;durP2;ratioP2;P2;SDS_P1;SDS_P2;PMS_P1;PMS_P2;Temp;Humidity;BMP_temperature;BMP_pressure;BME280_temperature;BME280_humidity;BME280_pressure;Samples;Min_cycle;Max_cycle;Signal;HPM_P1;HPM_P2
2022/11/30 00:08:31;;;;;;;0.77;0.40;;;-1.60;99.90;;;;;;20228427;23;20062;-57
2022/11/30 00:18:33;;;;;;;2.20;1.25;;;-1.80;99.90;;;;;;20231889;23;20095;-56
2022/11/30 00:28:36;;;;;;;1.98;1.30;;;-1.90;99.90;;;;;;20228507;23;20041;-56
2022/11/30 00:38:55;;;;;;;1.30;0.82;;;-2.20;99.90;;;;;;20169530;23;20058;-58
2022/11/30 00:48:58;;;;;;;1.60;0.73;;;-2.40;99.90;;;;;;20123157;23;1206306;-57
2022/11/30 00:59:00;;;;;;;1.42;1.02;;;-2.30;99.90;;;;;;20249525;23;20061;-58
2022/11/30 01:09:03;;;;;;;1.63;1.00;;;-2.30;99.90;;;;;;20226462;23;20095;-52
2022/11/30 01:19:05;;;;;;;3.03;1.40;;;-2.10;99.90;;;;;;20263891;23;21201;-56
2022/11/30 01:29:07;;;;;;;2.17;1.38;;;-1.90;99.90;;;;;;20235097;23;20393;-60
2022/11/30 01:39:11;;;;;;;2.83;1.95;;;-1.60;99.90;;;;;;20540297;23;20134;-56
2022/11/30 01:49:17;;;;;;;5.18;2.92;;;-1.50;99.90;;;;;;20254375;23;20137;-60
2022/11/30 01:59:22;;;;;;;5.15;2.78;;;-1.40;99.90;;;;;;20234595;23;20053;-57
2022/11/30 02:09:26;;;;;;;18.17;3.90;;;-1.60;99.90;;;;;;20244072;23;20466;-60
2022/11/30 02:19:34;;;;;;;7.30;3.78;;;-1.60;99.90;;;;;;20247261;23;20089;-58
2022/11/30 02:30:03;;;;;;;7.97;4.38;;;-1.40;99.90;;;;;;20178561;23;20054;31
2022/11/30 02:40:14;;;;;;;6.20;4.00;;;-1.30;99.90;;;;;;20101194;23;20054;31
2022/11/30 02:50:37;;;;;;;19.65;4.15;;;-1.50;99.90;;;;;;20141958;23;20099;-58
2022/11/30 03:00:40;;;;;;;5.03;3.22;;;-1.60;99.90;;;;;;20183124;23;20117;-59
2022/11/30 03:10:42;;;;;;;6.30;3.42;;;-1.60;99.90;;;;;;20238108;23;20122;-56
2022/11/30 03:20:44;;;;;;;12.90;4.90;;;-1.50;99.90;;;;;;20226043;23;20087;-59
2022/11/30 03:30:50;;;;;;;7.78;4.90;;;-1.40;99.90;;;;;;20253665;23;20045;-56
2022/11/30 03:41:05;;;;;;;10.48;5.35;;;-1.40;99.90;;;;;;20241990;23;20065;-59
2022/11/30 03:51:16;;;;;;;6.70;3.55;;;-1.50;99.90;;;;;;20161115;23;20054;-59
2022/11/30 04:01:23;;;;;;;7.97;4.07;;;-1.70;99.90;;;;;;20213005;23;20077;-54
2022/11/30 04:11:25;;;;;;;5.07;3.08;;;-2.00;99.90;;;;;;20258923;23;20121;-57
2022/11/30 04:21:27;;;;;;;3.40;2.00;;;-2.30;99.90;;;;;;21711427;23;20057;-56
2022/11/30 04:31:29;;;;;;;6.07;3.38;;;-2.90;99.90;;;;;;20222219;23;20058;-58
2022/11/30 04:41:32;;;;;;;244.97;10.00;;;-3.00;99.90;;;;;;20240378;23;20126;-55
2022/11/30 04:51:35;;;;;;;5.22;2.97;;;-2.60;99.90;;;;;;20195591;23;20061;-54
2022/11/30 05:01:38;;;;;;;5.75;3.22;;;-2.60;99.90;;;;;;20255572;23;20470;-52
2022/11/30 05:11:40;;;;;;;5.78;3.33;;;-2.70;99.90;;;;;;20258036;23;20339;-56
2022/11/30 05:21:43;;;;;;;7.30;4.25;;;-2.70;99.90;;;;;;20221518;23;20050;-59
2022/11/30 05:31:45;;;;;;;5.53;3.60;;;-2.60;99.90;;;;;;20197630;23;20455;-62
2022/11/30 05:41:48;;;;;;;5.43;3.33;;;-2.40;99.90;;;;;;20997441;23;20049;-60
2022/11/30 05:51:50;;;;;;;5.65;3.70;;;-2.60;99.90;;;;;;20246960;23;20118;-55
2022/11/30 06:01:53;;;;;;;6.93;4.25;;;-2.40;99.90;;;;;;20257082;23;20062;-58
2022/11/30 06:11:56;;;;;;;9.30;5.40;;;-2.30;99.90;;;;;;20215572;23;20057;-53
2022/11/30 06:21:58;;;;;;;9.10;5.78;;;-2.00;99.90;;;;;;20229435;23;20057;-59
2022/11/30 06:32:00;;;;;;;12.20;6.63;;;-1.90;99.90;;;;;;20187694;23;20054;-59
2022/11/30 06:42:03;;;;;;;10.43;6.22;;;-1.80;99.90;;;;;;20261401;23;20050;-55
2022/11/30 06:52:05;;;;;;;14.38;7.40;;;-1.90;99.90;;;;;;20238173;23;20122;-58
2022/11/30 07:02:13;;;;;;;18.77;9.27;;;-2.00;99.90;;;;;;20218424;23;20572;-56
2022/11/30 07:12:15;;;;;;;18.60;10.07;;;-2.10;99.90;;;;;;20224291;23;20062;-58
2022/11/30 07:22:54;;;;;;;17.15;9.55;;;-2.00;99.90;;;;;;20188297;23;20094;-58
2022/11/30 07:33:00;;;;;;;18.88;9.25;;;-1.60;99.90;;;;;;20215035;23;20092;-58
2022/11/30 07:43:02;;;;;;;17.15;9.13;;;-1.30;99.90;;;;;;20198494;23;20062;-60
2022/11/30 07:53:05;;;;;;;13.43;8.60;;;-1.00;99.90;;;;;;20236817;23;20058;-58
2022/11/30 08:03:08;;;;;;;14.40;9.00;;;-0.70;99.90;;;;;;20247787;23;20402;-59
2022/11/30 08:13:10;;;;;;;12.27;7.68;;;-0.50;99.90;;;;;;20222821;23;20124;-57
2022/11/30 08:23:12;;;;;;;44.55;12.68;;;-0.30;99.90;;;;;;20227258;23;20062;-56
2022/11/30 08:33:15;;;;;;;40.33;12.98;;;-0.20;99.90;;;;;;20197754;23;20061;-58
2022/11/30 08:43:17;;;;;;;171.55;18.38;;;0.00;99.90;;;;;;20224411;23;20057;-58
2022/11/30 08:53:19;;;;;;;22.23;12.85;;;0.10;99.90;;;;;;20263416;23;20130;-53
2022/11/30 09:03:22;;;;;;;18.33;9.93;;;0.10;99.90;;;;;;20226017;23;20509;-58
2022/11/30 09:13:25;;;;;;;14.40;8.55;;;0.00;99.90;;;;;;20237954;23;20109;-58
2022/11/30 09:23:28;;;;;;;17.50;9.20;;;0.10;99.90;;;;;;20190989;23;20504;-58
2022/11/30 09:33:31;;;;;;;17.13;8.77;;;0.30;99.90;;;;;;20747065;23;20102;-58
2022/11/30 09:43:51;;;;;;;14.55;8.40;;;0.60;99.90;;;;;;20159448;23;1964714;-60
2022/11/30 09:54:07;;;;;;;13.70;7.60;;;0.90;99.90;;;;;;20208122;23;20057;-56
2022/11/30 10:04:27;;;;;;;13.90;7.55;;;1.10;99.90;;;;;;20194959;23;20114;-59
2022/11/30 10:14:46;;;;;;;;;;;1.40;99.90;;;;;;20319420;24;20061;-54
2022/11/30 10:25:17;;;;;;;13.23;7.95;;;1.60;99.90;;;;;;20314621;24;19924;-60
2022/11/30 10:36:11;;;;;;;13.30;7.40;;;1.70;99.90;;;;;;20195890;24;20049;-59
2022/11/30 10:46:25;;;;;;;12.10;6.78;;;1.60;99.90;;;;;;20200785;23;20111;-60
2022/11/30 10:56:27;;;;;;;12.15;6.88;;;1.40;99.90;;;;;;20243748;23;20491;-58
2022/11/30 11:06:30;;;;;;;12.02;7.05;;;1.30;99.90;;;;;;20198909;23;20133;-60
2022/11/30 11:16:58;;;;;;;11.50;7.03;;;1.40;99.90;;;;;;20191663;23;20112;31
2022/11/30 11:27:21;;;;;;;11.90;7.20;;;1.60;99.90;;;;;;20105896;23;20114;31
2022/11/30 11:37:37;;;;;;;15.50;8.73;;;1.70;99.90;;;;;;20121011;23;20091;-60
2022/11/30 11:47:43;;;;;;;15.32;8.25;;;1.60;99.90;;;;;;20201437;23;20054;-56
2022/11/30 11:58:02;;;;;;;15.65;8.55;;;1.00;99.90;;;;;;20224626;23;20122;-60
2022/11/30 12:08:36;;;;;;;12.52;7.15;;;1.20;99.90;;;;;;20223580;23;20120;-57
2022/11/30 12:19:01;;;;;;;12.45;7.47;;;1.40;99.90;;;;;;20269029;23;20137;-53
2022/11/30 12:29:24;;;;;;;11.13;7.35;;;1.60;99.90;;;;;;20248108;23;20054;-56
2022/11/30 12:39:43;;;;;;;14.10;7.65;;;1.60;99.90;;;;;;20257612;23;20577;-60
2022/11/30 12:50:44;;;;;;;18.38;10.07;;;1.40;99.90;;;;;;20236869;23;20061;-57
2022/11/30 13:11:39;;;;;;;12.00;7.22;;;0.40;99.90;;;;;;20168686;23;20057;-57
2022/11/30 13:22:06;;;;;;;13.50;8.05;;;0.90;99.90;;;;;;20226653;23;20129;-61
2022/11/30 13:32:14;;;;;;;7.47;4.53;;;1.60;99.90;;;;;;20137181;23;20131;-58
2022/11/30 13:42:35;;;;;;;4.82;3.08;;;2.20;99.90;;;;;;20243308;23;20053;-59
2022/11/30 13:52:56;;;;;;;5.68;3.72;;;2.70;99.90;;;;;;20249597;23;20050;-58
2022/11/30 14:03:20;;;;;;;5.75;3.60;;;3.20;99.90;;;;;;20224372;23;20121;-60
2022/11/30 14:13:28;;;;;;;4.55;3.03;;;3.30;99.90;;;;;;20225635;23;20114;-58
2022/11/30 14:24:05;;;;;;;5.72;3.72;;;3.30;99.90;;;;;;20232497;23;20061;-59
2022/11/30 14:34:27;;;;;;;7.53;4.10;;;3.00;99.90;;;;;;20263887;23;20105;-58
2022/11/30 14:44:39;;;;;;;4.63;3.05;;;2.80;99.90;;;;;;20237176;23;20127;-59
2022/11/30 14:55:13;;;;;;;2.70;1.50;;;2.50;99.90;;;;;;20216567;23;20065;-67
2022/11/30 15:05:20;;;;;;;3.38;1.60;;;2.30;99.90;;;;;;20224631;23;20114;-58
2022/11/30 15:15:27;;;;;;;2.13;1.50;;;2.10;99.90;;;;;;20249079;23;20049;-57
2022/11/30 15:25:36;;;;;;;8.68;5.35;;;1.80;99.90;;;;;;20211623;23;20066;-50
2022/11/30 15:45:59;;;;;;;2.03;1.35;;;0.50;99.90;;;;;;20083708;23;20096;-58
2022/11/30 15:56:22;;;;;;;2.65;1.65;;;0.90;99.90;;;;;;20866841;23;20069;-56
2022/11/30 16:06:26;;;;;;;1.75;1.10;;;1.10;99.90;;;;;;20250602;23;20062;-61
2022/11/30 16:16:32;;;;;;;2.08;1.17;;;0.70;99.90;;;;;;20252782;23;20057;-59
2022/11/30 16:26:39;;;;;;;2.22;1.33;;;0.20;99.90;;;;;;20251871;23;20046;-61
2022/11/30 16:36:43;;;;;;;3.50;1.58;;;0.00;99.90;;;;;;20208496;23;20042;-54
2022/11/30 16:47:06;;;;;;;3.38;1.60;;;-0.20;99.90;;;;;;20168808;23;20053;-57
2022/11/30 16:57:08;;;;;;;;;;;-0.20;99.90;;;;;;20161983;24;20053;-60
2022/11/30 17:07:10;;;;;;;3.10;1.70;;;-0.30;99.90;;;;;;20263559;23;19924;-59
2022/11/30 17:17:12;;;;;;;2.55;1.60;;;0.00;99.90;;;;;;20228636;23;20130;-61
2022/11/30 17:27:18;;;;;;;2.30;1.30;;;0.00;99.90;;;;;;20247486;23;20432;-58
2022/11/30 17:37:22;;;;;;;2.20;1.40;;;-0.20;99.90;;;;;;20265202;23;20040;-61
2022/11/30 17:47:39;;;;;;;2.42;1.10;;;-0.30;99.90;;;;;;20193355;23;20057;-60
2022/11/30 17:57:42;;;;;;;2.22;1.20;;;-0.30;99.90;;;;;;20217597;23;20058;-59
2022/11/30 18:07:45;;;;;;;1.98;1.30;;;0.10;99.90;;;;;;20238017;23;20559;-54
2022/11/30 18:17:48;;;;;;;2.33;1.50;;;0.10;99.90;;;;;;20247370;23;20115;-58
2022/11/30 18:27:52;;;;;;;2.65;1.60;;;0.00;99.90;;;;;;20198308;23;20057;-60
2022/11/30 18:37:55;;;;;;;2.80;1.70;;;0.20;99.90;;;;;;20170724;23;1314215;-57
2022/11/30 18:47:57;;;;;;;2.80;1.55;;;0.30;99.90;;;;;;20175327;23;20054;-59
2022/11/30 18:58:00;;;;;;;2.65;1.65;;;0.30;99.90;;;;;;20272290;23;20049;-61
2022/11/30 19:08:10;;;;;;;2.55;1.50;;;0.30;99.90;;;;;;20243650;23;20089;-57
2022/11/30 19:18:12;;;;;;;2.20;1.15;;;0.60;99.90;;;;;;20229936;23;20420;-62
2022/11/30 19:28:16;;;;;;;2.70;1.63;;;0.80;99.90;;;;;;20216155;23;20055;-57
2022/11/30 19:38:27;;;;;;;2.97;1.58;;;0.80;99.90;;;;;;20208529;23;20104;-58
2022/11/30 19:48:29;;;;;;;2.00;1.40;;;0.90;99.90;;;;;;20199466;23;20054;-62
2022/11/30 19:58:32;;;;;;;2.65;1.50;;;1.00;99.90;;;;;;20191314;23;20050;-58
2022/11/30 20:08:37;;;;;;;2.95;1.40;;;1.00;99.90;;;;;;20201372;23;20126;-61
2022/11/30 20:18:40;;;;;;;2.17;1.38;;;1.00;99.90;;;;;;20238039;23;20120;-59
2022/11/30 20:28:44;;;;;;;2.17;1.40;;;1.10;99.90;;;;;;20225106;23;20042;-60
2022/11/30 20:39:03;;;;;;;2.45;1.40;;;1.20;99.90;;;;;;20174036;23;20058;-61
2022/11/30 20:49:14;;;;;;;3.78;1.20;;;1.30;99.90;;;;;;20160154;23;20428;-54
2022/11/30 20:59:33;;;;;;;2.17;1.20;;;1.30;99.90;;;;;;20124138;23;20057;-59
2022/11/30 21:09:36;;;;;;;2.45;1.20;;;1.50;99.90;;;;;;20235738;23;20061;-61
2022/11/30 21:19:39;;;;;;;2.58;1.55;;;1.60;99.90;;;;;;20252077;23;20091;-57
2022/11/30 21:29:43;;;;;;;2.17;1.25;;;1.60;99.90;;;;;;20222944;23;20494;-55
2022/11/30 21:39:46;;;;;;;2.05;1.33;;;1.60;99.90;;;;;;20229024;23;20038;-60
2022/11/30 21:49:48;;;;;;;1.90;1.10;;;1.60;99.90;;;;;;20209449;23;20057;-58
2022/11/30 21:59:51;;;;;;;2.80;1.20;;;1.70;99.90;;;;;;20243922;23;20061;-55
2022/11/30 22:09:53;;;;;;;2.15;1.10;;;1.70;99.90;;;;;;20244074;23;20061;-57
2022/11/30 22:19:59;;;;;;;3.28;1.40;;;1.60;99.90;;;;;;20237620;23;20090;-61
2022/11/30 22:30:03;;;;;;;3.47;2.05;;;1.80;99.90;;;;;;20283609;23;20125;-55
2022/11/30 22:40:39;;;;;;;3.08;1.98;;;1.90;99.90;;;;;;20192903;23;20094;-56
2022/11/30 22:50:48;;;;;;;4.20;2.25;;;1.30;99.90;;;;;;20227624;23;20054;31
2022/11/30 23:00:51;;;;;;;2.58;1.80;;;0.90;99.90;;;;;;20113833;23;20213;-57
2022/11/30 23:10:58;;;;;;;4.25;2.20;;;0.60;99.90;;;;;;20227221;23;20582;-60
2022/11/30 23:21:10;;;;;;;3.33;2.20;;;0.50;99.90;;;;;;20255882;23;20058;-54
2022/11/30 23:31:21;;;;;;;3.55;1.90;;;0.30;99.90;;;;;;20286692;23;20210;-60
2022/11/30 23:41:24;;;;;;;2.67;1.63;;;0.20;99.90;;;;;;20230933;23;20067;-56
2022/11/30 23:51:28;;;;;;;2.08;1.35;;;0.00;99.90;;;;;;20252038;23;20062;-54
